sensor_id;sensor_type;location;lat;lon;timestamp;pressure;altitude;pressure_sealevel;temperature;humidity
62592;BME280;48659;41.622;2.276;2023-03-01T00:01:17;99877.95;;;1.77;38.99
62592;BME280;48659;41.622;2.276;2023-03-01T00:03:45;99880.15;;;2.52;38.73
62592;BME280;48659;41.622;2.276;2023-03-01T00:06:14;99888.56;;;1.70;40.28
62592;BME280;48659;41.622;2.276;2023-03-01T00:08:52;99886.23;;;1.68;41.31
62592;BME280;48659;41.622;2.276;2023-03-01T00:11:26;99886.40;;;1.67;39.98
62592;BME280;48659;41.622;2.276;2023-03-01T00:13:56;99889.64;;;1.88;40.40
62592;BME280;48659;41.622;2.276;2023-03-01T00:16:26;99895.21;;;1.89;39.99
62592;BME280;48659;41.622;2.276;2023-03-01T00:18:54;99892.54;;;1.54;41.20
62592;BME280;48659;41.622;2.276;2023-03-01T00:21:22;99888.01;;;1.42;40.83
62592;BME280;48659;41.622;2.276;2023-03-01T00:23:50;99889.76;;;1.92;40.81
62592;BME280;48659;41.622;2.276;2023-03-01T00:26:20;99885.69;;;1.21;41.50
62592;BME280;48659;41.622;2.276;2023-03-01T00:28:47;99888.67;;;2.04;40.65
62592;BME280;48659;41.622;2.276;2023-03-01T00:31:29;99886.99;;;2.18;40.60
62592;BME280;48659;41.622;2.276;2023-03-01T00:34:03;99892.75;;;1.60;41.61
62592;BME280;48659;41.622;2.276;2023-03-01T00:36:34;99889.30;;;0.85;41.20
62592;BME280;48659;41.622;2.276;2023-03-01T00:39:03;99891.30;;;2.39;39.34
62592;BME280;48659;41.622;2.276;2023-03-01T00:41:31;99896.81;;;1.58;40.56
62592;BME280;48659;41.622;2.276;2023-03-01T00:43:59;99899.05;;;1.62;39.81
62592;BME280;48659;41.622;2.276;2023-03-01T00:46:28;99896.21;;;2.11;39.49
62592;BME280;48659;41.622;2.276;2023-03-01T00:48:55;99887.83;;;2.56;38.43
62592;BME280;48659;41.622;2.276;2023-03-01T00:51:26;99888.24;;;2.45;37.27
62592;BME280;48659;41.622;2.276;2023-03-01T00:53:56;99888.62;;;2.74;37.74
62592;BME280;48659;41.622;2.276;2023-03-01T00:56:25;99891.80;;;2.61;37.58
62592;BME280;48659;41.622;2.276;2023-03-01T00:59:16;99900.51;;;1.09;39.15
62592;BME280;48659;41.622;2.276;2023-03-01T01:01:43;99899.35;;;1.27;39.90
62592;BME280;48659;41.622;2.276;2023-03-01T01:04:13;99898.08;;;2.35;38.73
62592;BME280;48659;41.622;2.276;2023-03-01T01:06:42;99898.69;;;2.28;38.24
62592;BME280;48659;41.622;2.276;2023-03-01T01:09:12;99899.75;;;2.38;38.95
62592;BME280;48659;41.622;2.276;2023-03-01T01:11:40;99900.41;;;1.94;38.90
62592;BME280;48659;41.622;2.276;2023-03-01T01:14:07;99897.27;;;2.15;39.15
62592;BME280;48659;41.622;2.276;2023-03-01T01:16:35;99894.10;;;1.18;40.62
62592;BME280;48659;41.622;2.276;2023-03-01T01:19:03;99894.92;;;1.44;40.48
62592;BME280;48659;41.622;2.276;2023-03-01T01:21:31;99890.47;;;0.83;41.00
62592;BME280;48659;41.622;2.276;2023-03-01T01:23:59;99891.04;;;2.04;39.48
62592;BME280;48659;41.622;2.276;2023-03-01T01:26:28;99893.91;;;1.51;40.29
62592;BME280;48659;41.622;2.276;2023-03-01T01:28:57;99882.87;;;2.34;38.41
62592;BME280;48659;41.622;2.276;2023-03-01T01:31:25;99875.43;;;2.50;37.20
62592;BME280;48659;41.622;2.276;2023-03-01T01:33:54;99875.90;;;2.20;38.65
62592;BME280;48659;41.622;2.276;2023-03-01T01:36:23;99874.63;;;1.74;38.75
62592;BME280;48659;41.622;2.276;2023-03-01T01:38:50;99865.30;;;2.88;37.64
62592;BME280;48659;41.622;2.276;2023-03-01T01:41:26;99865.84;;;1.84;38.33
62592;BME280;48659;41.622;2.276;2023-03-01T01:44:13;99855.52;;;3.48;36.69
62592;BME280;48659;41.622;2.276;2023-03-01T01:46:43;99859.88;;;1.82;38.97
62592;BME280;48659;41.622;2.276;2023-03-01T01:49:25;99860.71;;;2.05;38.52
62592;BME280;48659;41.622;2.276;2023-03-01T01:51:59;99859.64;;;1.74;38.68
62592;BME280;48659;41.622;2.276;2023-03-01T01:54:33;99855.45;;;1.74;39.48
62592;BME280;48659;41.622;2.276;2023-03-01T01:57:09;99847.70;;;4.88;35.46
62592;BME280;48659;41.622;2.276;2023-03-01T01:59:39;99845.39;;;3.64;35.60
62592;BME280;48659;41.622;2.276;2023-03-01T02:02:08;99842.88;;;4.97;33.84
62592;BME280;48659;41.622;2.276;2023-03-01T02:04:36;99848.38;;;3.72;35.61
62592;BME280;48659;41.622;2.276;2023-03-01T02:07:09;99848.72;;;3.36;35.90
62592;BME280;48659;41.622;2.276;2023-03-01T02:09:41;99844.24;;;3.21;37.66
62592;BME280;48659;41.622;2.276;2023-03-01T02:12:09;99842.81;;;3.46;37.08
62592;BME280;48659;41.622;2.276;2023-03-01T02:14:36;99846.96;;;1.59;39.26
62592;BME280;48659;41.622;2.276;2023-03-01T02:17:04;99851.76;;;1.36;40.70
62592;BME280;48659;41.622;2.276;2023-03-01T02:19:42;99856.81;;;0.55;42.75
62592;BME280;48659;41.622;2.276;2023-03-01T02:22:18;99850.92;;;1.31;41.18
62592;BME280;48659;41.622;2.276;2023-03-01T02:24:57;99849.18;;;1.27;40.19
62592;BME280;48659;41.622;2.276;2023-03-01T02:31:16;99842.99;;;0.51;42.22
62592;BME280;48659;41.622;2.276;2023-03-01T02:33:44;99837.84;;;1.25;40.56
62592;BME280;48659;41.622;2.276;2023-03-01T02:36:16;99835.53;;;1.90;39.87
62592;BME280;48659;41.622;2.276;2023-03-01T02:38:47;99840.09;;;1.96;39.68
62592;BME280;48659;41.622;2.276;2023-03-01T02:41:16;99839.81;;;1.26;40.50
62592;BME280;48659;41.622;2.276;2023-03-01T02:43:44;99831.54;;;1.58;39.36
62592;BME280;48659;41.622;2.276;2023-03-01T02:46:16;99828.18;;;2.41;38.71
62592;BME280;48659;41.622;2.276;2023-03-01T02:48:46;99833.12;;;2.03;40.44
62592;BME280;48659;41.622;2.276;2023-03-01T02:51:33;99832.69;;;1.30;41.39
62592;BME280;48659;41.622;2.276;2023-03-01T02:54:10;99823.87;;;2.74;39.12
62592;BME280;48659;41.622;2.276;2023-03-01T02:56:41;99821.67;;;3.31;37.58
62592;BME280;48659;41.622;2.276;2023-03-01T02:59:10;99817.69;;;2.92;37.52
62592;BME280;48659;41.622;2.276;2023-03-01T03:01:38;99809.22;;;4.57;35.28
62592;BME280;48659;41.622;2.276;2023-03-01T03:04:09;99810.34;;;3.08;36.81
62592;BME280;48659;41.622;2.276;2023-03-01T03:06:38;99822.43;;;0.49;41.04
62592;BME280;48659;41.622;2.276;2023-03-01T03:09:06;99817.61;;;1.07;41.62
62592;BME280;48659;41.622;2.276;2023-03-01T03:11:48;99816.48;;;0.21;40.98
62592;BME280;48659;41.622;2.276;2023-03-01T03:14:16;99811.32;;;3.43;38.00
62592;BME280;48659;41.622;2.276;2023-03-01T03:16:45;99807.94;;;3.54;37.06
62592;BME280;48659;41.622;2.276;2023-03-01T03:19:14;99808.75;;;3.61;37.21
62592;BME280;48659;41.622;2.276;2023-03-01T03:21:43;99807.05;;;4.05;34.62
62592;BME280;48659;41.622;2.276;2023-03-01T03:24:10;99806.33;;;4.12;34.81
62592;BME280;48659;41.622;2.276;2023-03-01T03:26:37;99807.16;;;4.97;35.70
62592;BME280;48659;41.622;2.276;2023-03-01T03:29:04;99804.72;;;5.23;36.06
62592;BME280;48659;41.622;2.276;2023-03-01T03:31:32;99801.34;;;4.89;34.72
62592;BME280;48659;41.622;2.276;2023-03-01T03:34:00;99798.25;;;4.58;36.42
62592;BME280;48659;41.622;2.276;2023-03-01T03:36:43;99799.25;;;4.97;36.25
62592;BME280;48659;41.622;2.276;2023-03-01T03:39:10;99795.94;;;5.35;35.99
62592;BME280;48659;41.622;2.276;2023-03-01T03:41:38;99798.72;;;4.76;36.73
62592;BME280;48659;41.622;2.276;2023-03-01T03:44:05;99796.89;;;4.87;37.91
62592;BME280;48659;41.622;2.276;2023-03-01T03:46:32;99796.95;;;4.51;38.20
62592;BME280;48659;41.622;2.276;2023-03-01T03:48:59;99799.02;;;4.12;39.23
62592;BME280;48659;41.622;2.276;2023-03-01T03:51:27;99797.73;;;3.80;39.87
62592;BME280;48659;41.622;2.276;2023-03-01T03:53:54;99794.87;;;4.14;39.44
62592;BME280;48659;41.622;2.276;2023-03-01T03:56:22;99799.27;;;4.07;39.84
62592;BME280;48659;41.622;2.276;2023-03-01T03:58:49;99801.79;;;3.87;39.52
62592;BME280;48659;41.622;2.276;2023-03-01T04:01:17;99805.37;;;3.96;39.82
62592;BME280;48659;41.622;2.276;2023-03-01T04:03:45;99807.11;;;4.68;38.99
62592;BME280;48659;41.622;2.276;2023-03-01T04:06:13;99807.08;;;3.96;38.99
62592;BME280;48659;41.622;2.276;2023-03-01T04:08:41;99813.69;;;2.73;39.97
62592;BME280;48659;41.622;2.276;2023-03-01T04:11:09;99811.96;;;3.60;40.07
62592;BME280;48659;41.622;2.276;2023-03-01T04:13:36;99816.08;;;2.76;42.03
62592;BME280;48659;41.622;2.276;2023-03-01T04:16:04;99809.23;;;4.59;38.81
62592;BME280;48659;41.622;2.276;2023-03-01T04:18:32;99814.96;;;2.47;41.69
62592;BME280;48659;41.622;2.276;2023-03-01T04:21:00;99816.75;;;3.10;41.48
62592;BME280;48659;41.622;2.276;2023-03-01T04:23:28;99814.48;;;4.08;39.68
62592;BME280;48659;41.622;2.276;2023-03-01T04:25:57;99817.01;;;2.29;40.71
62592;BME280;48659;41.622;2.276;2023-03-01T04:28:27;99818.30;;;3.98;39.39
62592;BME280;48659;41.622;2.276;2023-03-01T04:30:56;99821.57;;;2.75;39.46
62592;BME280;48659;41.622;2.276;2023-03-01T04:33:25;99817.64;;;3.73;38.11
62592;BME280;48659;41.622;2.276;2023-03-01T04:35:52;99815.14;;;4.15;39.52
62592;BME280;48659;41.622;2.276;2023-03-01T04:38:21;99811.72;;;3.88;39.07
62592;BME280;48659;41.622;2.276;2023-03-01T04:40:48;99817.90;;;3.27;38.45
62592;BME280;48659;41.622;2.276;2023-03-01T04:43:16;99820.38;;;3.02;38.50
62592;BME280;48659;41.622;2.276;2023-03-01T04:45:44;99825.22;;;2.00;38.74
62592;BME280;48659;41.622;2.276;2023-03-01T04:48:12;99835.68;;;0.08;43.25
62592;BME280;48659;41.622;2.276;2023-03-01T04:50:39;99835.99;;;0.26;42.73
62592;BME280;48659;41.622;2.276;2023-03-01T04:53:06;99838.99;;;1.28;43.03
62592;BME280;48659;41.622;2.276;2023-03-01T04:55:37;99836.59;;;1.54;41.37
62592;BME280;48659;41.622;2.276;2023-03-01T04:58:05;99847.44;;;1.15;43.52
62592;BME280;48659;41.622;2.276;2023-03-01T05:00:48;99840.49;;;0.90;41.91
62592;BME280;48659;41.622;2.276;2023-03-01T05:03:15;99834.39;;;2.70;40.63
62592;BME280;48659;41.622;2.276;2023-03-01T05:05:42;99840.45;;;1.26;42.53
62592;BME280;48659;41.622;2.276;2023-03-01T05:08:10;99836.67;;;0.69;43.32
62592;BME280;48659;41.622;2.276;2023-03-01T05:10:38;99831.83;;;1.66;42.21
62592;BME280;48659;41.622;2.276;2023-03-01T05:13:05;99832.78;;;3.25;40.09
62592;BME280;48659;41.622;2.276;2023-03-01T05:15:37;99836.08;;;2.74;39.38
62592;BME280;48659;41.622;2.276;2023-03-01T05:18:05;99837.53;;;3.54;38.97
62592;BME280;48659;41.622;2.276;2023-03-01T05:20:33;99832.98;;;4.11;37.37
62592;BME280;48659;41.622;2.276;2023-03-01T05:23:00;99836.08;;;3.56;38.41
62592;BME280;48659;41.622;2.276;2023-03-01T05:25:44;99837.48;;;4.10;37.68
62592;BME280;48659;41.622;2.276;2023-03-01T05:28:12;99838.97;;;4.70;37.70
62592;BME280;48659;41.622;2.276;2023-03-01T05:30:40;99836.29;;;4.05;37.76
62592;BME280;48659;41.622;2.276;2023-03-01T05:33:08;99832.56;;;4.08;38.98
62592;BME280;48659;41.622;2.276;2023-03-01T05:35:37;99835.71;;;3.18;39.39
62592;BME280;48659;41.622;2.276;2023-03-01T05:38:04;99833.81;;;4.44;38.85
62592;BME280;48659;41.622;2.276;2023-03-01T05:40:40;99834.83;;;3.42;39.36
62592;BME280;48659;41.622;2.276;2023-03-01T05:43:07;99834.91;;;3.61;40.24
62592;BME280;48659;41.622;2.276;2023-03-01T05:45:37;99838.06;;;2.43;41.82
62592;BME280;48659;41.622;2.276;2023-03-01T05:48:07;99838.79;;;3.51;41.96
62592;BME280;48659;41.622;2.276;2023-03-01T05:50:40;99841.01;;;3.20;41.53
62592;BME280;48659;41.622;2.276;2023-03-01T05:53:11;99839.58;;;3.35;41.53
62592;BME280;48659;41.622;2.276;2023-03-01T05:55:40;99838.04;;;3.30;40.76
62592;BME280;48659;41.622;2.276;2023-03-01T05:58:09;99837.25;;;3.19;41.58
62592;BME280;48659;41.622;2.276;2023-03-01T06:00:39;99838.10;;;3.10;42.35
62592;BME280;48659;41.622;2.276;2023-03-01T06:03:06;99837.67;;;3.41;42.01
62592;BME280;48659;41.622;2.276;2023-03-01T06:05:34;99839.47;;;2.59;42.14
62592;BME280;48659;41.622;2.276;2023-03-01T06:08:02;99838.41;;;3.29;41.31
62592;BME280;48659;41.622;2.276;2023-03-01T06:10:37;99838.72;;;2.25;42.29
62592;BME280;48659;41.622;2.276;2023-03-01T06:13:04;99838.81;;;3.73;41.08
62592;BME280;48659;41.622;2.276;2023-03-01T06:15:37;99839.64;;;3.27;40.88
62592;BME280;48659;41.622;2.276;2023-03-01T06:18:05;99841.44;;;3.72;40.30
62592;BME280;48659;41.622;2.276;2023-03-01T06:20:32;99838.41;;;4.44;37.07
62592;BME280;48659;41.622;2.276;2023-03-01T06:22:59;99844.18;;;4.08;37.96
62592;BME280;48659;41.622;2.276;2023-03-01T06:25:28;99841.08;;;4.18;37.73
62592;BME280;48659;41.622;2.276;2023-03-01T06:27:56;99841.87;;;1.87;39.87
62592;BME280;48659;41.622;2.276;2023-03-01T06:30:25;99835.70;;;3.75;38.69
62592;BME280;48659;41.622;2.276;2023-03-01T06:32:53;99828.46;;;4.38;37.72
62592;BME280;48659;41.622;2.276;2023-03-01T06:35:20;99835.81;;;4.53;37.18
62592;BME280;48659;41.622;2.276;2023-03-01T06:37:48;99838.46;;;4.28;37.29
62592;BME280;48659;41.622;2.276;2023-03-01T06:40:16;99840.11;;;4.20;37.91
62592;BME280;48659;41.622;2.276;2023-03-01T06:42:48;99842.59;;;3.56;38.03
62592;BME280;48659;41.622;2.276;2023-03-01T06:45:16;99847.01;;;3.75;38.24
62592;BME280;48659;41.622;2.276;2023-03-01T06:47:44;99846.74;;;3.55;37.48
62592;BME280;48659;41.622;2.276;2023-03-01T06:50:13;99851.25;;;3.48;38.02
62592;BME280;48659;41.622;2.276;2023-03-01T06:52:41;99854.10;;;4.12;38.08
62592;BME280;48659;41.622;2.276;2023-03-01T06:55:09;99855.08;;;3.80;38.45
62592;BME280;48659;41.622;2.276;2023-03-01T06:57:36;99861.41;;;3.60;38.95
62592;BME280;48659;41.622;2.276;2023-03-01T07:00:04;99860.96;;;2.94;40.88
62592;BME280;48659;41.622;2.276;2023-03-01T07:02:36;99863.44;;;3.07;39.63
62592;BME280;48659;41.622;2.276;2023-03-01T07:05:04;99862.44;;;4.16;38.45
62592;BME280;48659;41.622;2.276;2023-03-01T07:07:37;99861.90;;;4.48;37.29
62592;BME280;48659;41.622;2.276;2023-03-01T07:10:06;99866.35;;;2.77;39.65
62592;BME280;48659;41.622;2.276;2023-03-01T07:12:38;99856.96;;;4.27;38.89
62592;BME280;48659;41.622;2.276;2023-03-01T07:15:08;99856.71;;;4.23;37.69
62592;BME280;48659;41.622;2.276;2023-03-01T07:17:37;99856.69;;;3.79;37.49
62592;BME280;48659;41.622;2.276;2023-03-01T07:20:05;99856.32;;;4.87;37.06
62592;BME280;48659;41.622;2.276;2023-03-01T07:22:32;99859.03;;;4.37;37.23
62592;BME280;48659;41.622;2.276;2023-03-01T07:24:59;99861.79;;;4.36;37.45
62592;BME280;48659;41.622;2.276;2023-03-01T07:27:27;99868.23;;;4.64;37.62
62592;BME280;48659;41.622;2.276;2023-03-01T07:29:54;99872.51;;;4.55;36.77
62592;BME280;48659;41.622;2.276;2023-03-01T07:32:21;99876.27;;;5.25;35.75
62592;BME280;48659;41.622;2.276;2023-03-01T07:34:50;99876.55;;;4.55;37.30
62592;BME280;48659;41.622;2.276;2023-03-01T07:37:18;99875.13;;;4.11;38.20
62592;BME280;48659;41.622;2.276;2023-03-01T07:39:45;99874.21;;;4.51;37.22
62592;BME280;48659;41.622;2.276;2023-03-01T07:42:12;99876.47;;;4.71;36.77
62592;BME280;48659;41.622;2.276;2023-03-01T07:44:40;99878.31;;;4.61;36.46
62592;BME280;48659;41.622;2.276;2023-03-01T07:47:07;99885.72;;;5.06;35.94
62592;BME280;48659;41.622;2.276;2023-03-01T07:49:36;99882.35;;;4.65;36.19
62592;BME280;48659;41.622;2.276;2023-03-01T07:52:04;99882.39;;;5.25;37.62
62592;BME280;48659;41.622;2.276;2023-03-01T07:54:32;99880.62;;;4.85;37.00
62592;BME280;48659;41.622;2.276;2023-03-01T07:56:59;99889.49;;;5.73;36.51
62592;BME280;48659;41.622;2.276;2023-03-01T07:59:26;99889.87;;;5.04;36.69
62592;BME280;48659;41.622;2.276;2023-03-01T08:01:54;99895.86;;;5.16;36.00
62592;BME280;48659;41.622;2.276;2023-03-01T08:04:22;99896.49;;;5.85;35.44
62592;BME280;48659;41.622;2.276;2023-03-01T08:06:49;99889.54;;;5.65;34.72
62592;BME280;48659;41.622;2.276;2023-03-01T08:09:16;99890.82;;;6.19;34.25
62592;BME280;48659;41.622;2.276;2023-03-01T08:11:44;99894.86;;;5.13;34.84
62592;BME280;48659;41.622;2.276;2023-03-01T08:14:11;99886.78;;;6.50;34.08
62592;BME280;48659;41.622;2.276;2023-03-01T08:16:39;99882.05;;;5.49;34.47
62592;BME280;48659;41.622;2.276;2023-03-01T08:19:08;99882.15;;;5.56;36.20
62592;BME280;48659;41.622;2.276;2023-03-01T08:21:38;99875.09;;;6.28;35.45
62592;BME280;48659;41.622;2.276;2023-03-01T08:24:07;99885.35;;;6.21;34.12
62592;BME280;48659;41.622;2.276;2023-03-01T08:26:37;99888.19;;;5.48;35.13
62592;BME280;48659;41.622;2.276;2023-03-01T08:29:04;99888.43;;;6.08;34.92
62592;BME280;48659;41.622;2.276;2023-03-01T08:31:39;99884.17;;;6.44;32.93
62592;BME280;48659;41.622;2.276;2023-03-01T08:34:08;99882.16;;;6.54;33.86
62592;BME280;48659;41.622;2.276;2023-03-01T08:36:39;99882.80;;;6.12;33.89
62592;BME280;48659;41.622;2.276;2023-03-01T08:39:08;99880.06;;;6.60;33.33
62592;BME280;48659;41.622;2.276;2023-03-01T08:41:38;99876.22;;;6.43;32.92
62592;BME280;48659;41.622;2.276;2023-03-01T08:44:08;99872.26;;;7.53;32.93
62592;BME280;48659;41.622;2.276;2023-03-01T08:46:41;99865.20;;;6.59;33.57
62592;BME280;48659;41.622;2.276;2023-03-01T08:49:10;99865.62;;;7.27;33.44
62592;BME280;48659;41.622;2.276;2023-03-01T08:51:39;99864.98;;;6.38;33.10
62592;BME280;48659;41.622;2.276;2023-03-01T08:54:10;99862.87;;;6.73;33.02
62592;BME280;48659;41.622;2.276;2023-03-01T08:56:39;99860.12;;;6.60;33.18
62592;BME280;48659;41.622;2.276;2023-03-01T08:59:07;99859.61;;;6.82;33.19
62592;BME280;48659;41.622;2.276;2023-03-01T09:01:39;99855.59;;;7.37;31.57
62592;BME280;48659;41.622;2.276;2023-03-01T09:04:07;99859.73;;;7.60;31.80
62592;BME280;48659;41.622;2.276;2023-03-01T09:06:37;99858.90;;;7.33;35.14
62592;BME280;48659;41.622;2.276;2023-03-01T09:09:05;99857.77;;;7.39;31.78
62592;BME280;48659;41.622;2.276;2023-03-01T09:11:37;99844.74;;;8.10;30.56
62592;BME280;48659;41.622;2.276;2023-03-01T09:14:05;99849.05;;;6.74;32.95
62592;BME280;48659;41.622;2.276;2023-03-01T09:16:37;99849.13;;;5.95;33.18
62592;BME280;48659;41.622;2.276;2023-03-01T09:19:05;99859.17;;;2.87;38.33
62592;BME280;48659;41.622;2.276;2023-03-01T09:21:38;99859.04;;;4.91;35.49
62592;BME280;48659;41.622;2.276;2023-03-01T09:24:06;99842.84;;;7.06;33.03
62592;BME280;48659;41.622;2.276;2023-03-01T09:26:37;99839.28;;;7.18;33.44
62592;BME280;48659;41.622;2.276;2023-03-01T09:29:04;99831.10;;;8.67;32.46
62592;BME280;48659;41.622;2.276;2023-03-01T09:31:37;99831.87;;;7.11;31.63
62592;BME280;48659;41.622;2.276;2023-03-01T09:34:05;99833.22;;;6.75;33.54
62592;BME280;48659;41.622;2.276;2023-03-01T09:36:38;99829.72;;;7.26;32.26
62592;BME280;48659;41.622;2.276;2023-03-01T09:39:06;99829.60;;;6.01;34.13
62592;BME280;48659;41.622;2.276;2023-03-01T09:41:52;99818.74;;;8.04;31.93
62592;BME280;48659;41.622;2.276;2023-03-01T09:44:40;99812.60;;;9.16;31.14
62592;BME280;48659;41.622;2.276;2023-03-01T09:47:12;99805.86;;;8.85;31.07
62592;BME280;48659;41.622;2.276;2023-03-01T09:49:45;99804.65;;;8.61;30.91
62592;BME280;48659;41.622;2.276;2023-03-01T09:52:28;99808.13;;;9.69;30.51
62592;BME280;48659;41.622;2.276;2023-03-01T09:55:09;99802.97;;;9.89;30.49
62592;BME280;48659;41.622;2.276;2023-03-01T09:57:45;99804.20;;;8.77;30.47
62592;BME280;48659;41.622;2.276;2023-03-01T10:00:28;99800.38;;;8.39;32.08
62592;BME280;48659;41.622;2.276;2023-03-01T10:03:14;99805.43;;;9.77;31.81
62592;BME280;48659;41.622;2.276;2023-03-01T10:05:52;99803.64;;;9.90;30.35
62592;BME280;48659;41.622;2.276;2023-03-01T10:08:41;99803.34;;;9.20;30.61
62592;BME280;48659;41.622;2.276;2023-03-01T10:11:21;99801.15;;;9.32;30.98
62592;BME280;48659;41.622;2.276;2023-03-01T10:13:56;99797.79;;;9.69;31.02
62592;BME280;48659;41.622;2.276;2023-03-01T10:16:33;99801.02;;;9.46;30.93
62592;BME280;48659;41.622;2.276;2023-03-01T10:19:05;99787.35;;;10.20;30.08
62592;BME280;48659;41.622;2.276;2023-03-01T10:21:43;99784.92;;;9.95;30.34
62592;BME280;48659;41.622;2.276;2023-03-01T10:24:14;99792.67;;;9.32;30.67
62592;BME280;48659;41.622;2.276;2023-03-01T10:26:52;99790.36;;;9.87;30.75
62592;BME280;48659;41.622;2.276;2023-03-01T10:29:24;99790.89;;;9.59;32.29
62592;BME280;48659;41.622;2.276;2023-03-01T10:31:55;99797.56;;;5.54;38.59
62592;BME280;48659;41.622;2.276;2023-03-01T10:34:39;99794.73;;;7.26;37.45
62592;BME280;48659;41.622;2.276;2023-03-01T10:37:11;99790.92;;;7.39;37.88
62592;BME280;48659;41.622;2.276;2023-03-01T10:39:56;99785.01;;;8.71;35.20
62592;BME280;48659;41.622;2.276;2023-03-01T10:42:29;99785.09;;;8.14;36.04
62592;BME280;48659;41.622;2.276;2023-03-01T10:45:36;99788.63;;;7.24;37.59
62592;BME280;48659;41.622;2.276;2023-03-01T10:48:08;99784.24;;;9.04;38.85
62592;BME280;48659;41.622;2.276;2023-03-01T10:50:40;99773.03;;;9.56;33.38
62592;BME280;48659;41.622;2.276;2023-03-01T10:53:22;99774.07;;;9.69;33.65
62592;BME280;48659;41.622;2.276;2023-03-01T10:55:57;99758.80;;;10.45;32.80
62592;BME280;48659;41.622;2.276;2023-03-01T10:58:25;99766.22;;;9.71;33.92
62592;BME280;48659;41.622;2.276;2023-03-01T11:00:55;99756.64;;;10.18;32.70
62592;BME280;48659;41.622;2.276;2023-03-01T11:03:24;99764.38;;;8.40;35.13
62592;BME280;48659;41.622;2.276;2023-03-01T11:05:57;99764.35;;;8.81;34.91
62592;BME280;48659;41.622;2.276;2023-03-01T11:08:31;99758.02;;;9.72;33.44
62592;BME280;48659;41.622;2.276;2023-03-01T11:11:12;99749.21;;;9.83;32.47
62592;BME280;48659;41.622;2.276;2023-03-01T11:13:53;99750.63;;;8.19;33.82
62592;BME280;48659;41.622;2.276;2023-03-01T11:16:28;99755.05;;;8.84;34.52
62592;BME280;48659;41.622;2.276;2023-03-01T11:19:21;99749.30;;;9.30;32.66
62592;BME280;48659;41.622;2.276;2023-03-01T11:21:58;99751.76;;;9.21;32.83
62592;BME280;48659;41.622;2.276;2023-03-01T11:24:33;99740.08;;;9.50;35.48
62592;BME280;48659;41.622;2.276;2023-03-01T11:27:06;99732.98;;;9.93;31.80
62592;BME280;48659;41.622;2.276;2023-03-01T11:29:42;99726.13;;;9.74;30.44
62592;BME280;48659;41.622;2.276;2023-03-01T11:32:13;99724.23;;;10.18;29.98
62592;BME280;48659;41.622;2.276;2023-03-01T11:34:47;99719.61;;;9.49;30.57
62592;BME280;48659;41.622;2.276;2023-03-01T11:37:23;99721.49;;;9.59;30.52
62592;BME280;48659;41.622;2.276;2023-03-01T11:40:02;99718.98;;;10.50;29.70
62592;BME280;48659;41.622;2.276;2023-03-01T11:42:46;99719.61;;;9.24;29.38
62592;BME280;48659;41.622;2.276;2023-03-01T11:45:16;99709.42;;;9.78;28.51
62592;BME280;48659;41.622;2.276;2023-03-01T11:47:55;99712.24;;;7.65;29.62
62592;BME280;48659;41.622;2.276;2023-03-01T11:50:48;99696.44;;;10.43;27.31
62592;BME280;48659;41.622;2.276;2023-03-01T11:53:33;99689.70;;;11.08;26.24
62592;BME280;48659;41.622;2.276;2023-03-01T11:56:18;99687.46;;;10.72;26.28
62592;BME280;48659;41.622;2.276;2023-03-01T11:59:02;99681.43;;;9.70;26.79
62592;BME280;48659;41.622;2.276;2023-03-01T12:01:49;99668.44;;;10.19;26.34
62592;BME280;48659;41.622;2.276;2023-03-01T12:04:51;99663.43;;;11.20;26.35
62592;BME280;48659;41.622;2.276;2023-03-01T12:07:29;99664.42;;;10.56;26.15
62592;BME280;48659;41.622;2.276;2023-03-01T12:10:20;99660.80;;;10.13;26.56
62592;BME280;48659;41.622;2.276;2023-03-01T12:12:58;99654.31;;;9.82;25.31
62592;BME280;48659;41.622;2.276;2023-03-01T12:15:46;99647.34;;;9.61;25.39
62592;BME280;48659;41.622;2.276;2023-03-01T12:18:58;99638.92;;;10.75;25.58
62592;BME280;48659;41.622;2.276;2023-03-01T12:21:39;99637.16;;;11.24;24.70
62592;BME280;48659;41.622;2.276;2023-03-01T12:25:20;99627.89;;;11.02;24.11
62592;BME280;48659;41.622;2.276;2023-03-01T12:28:39;99626.05;;;10.88;22.90
62592;BME280;48659;41.622;2.276;2023-03-01T12:31:29;99625.67;;;11.07;22.41
62592;BME280;48659;41.622;2.276;2023-03-01T12:34:13;99621.37;;;10.76;23.02
62592;BME280;48659;41.622;2.276;2023-03-01T12:36:53;99615.49;;;10.04;22.45
62592;BME280;48659;41.622;2.276;2023-03-01T12:39:40;99618.63;;;9.00;23.53
62592;BME280;48659;41.622;2.276;2023-03-01T12:42:20;99615.34;;;10.13;23.57
62592;BME280;48659;41.622;2.276;2023-03-01T12:45:02;99616.85;;;9.99;22.30
62592;BME280;48659;41.622;2.276;2023-03-01T12:47:44;99611.53;;;9.15;23.07
62592;BME280;48659;41.622;2.276;2023-03-01T12:50:19;99609.26;;;9.28;23.02
62592;BME280;48659;41.622;2.276;2023-03-01T12:52:51;99600.50;;;10.88;22.00
62592;BME280;48659;41.622;2.276;2023-03-01T12:55:26;99595.59;;;10.38;24.41
62592;BME280;48659;41.622;2.276;2023-03-01T12:58:02;99589.74;;;10.12;23.75
62592;BME280;48659;41.622;2.276;2023-03-01T13:00:41;99582.56;;;11.47;21.27
62592;BME280;48659;41.622;2.276;2023-03-01T13:03:23;99578.72;;;11.93;21.18
62592;BME280;48659;41.622;2.276;2023-03-01T13:06:04;99568.64;;;11.87;23.09
62592;BME280;48659;41.622;2.276;2023-03-01T13:08:41;99577.42;;;11.80;24.03
62592;BME280;48659;41.622;2.276;2023-03-01T13:11:17;99573.34;;;12.50;20.70
62592;BME280;48659;41.622;2.276;2023-03-01T13:13:44;99566.73;;;10.98;21.09
62592;BME280;48659;41.622;2.276;2023-03-01T13:16:45;99563.68;;;11.53;19.93
62592;BME280;48659;41.622;2.276;2023-03-01T13:19:15;99561.55;;;11.19;20.82
62592;BME280;48659;41.622;2.276;2023-03-01T13:21:44;99556.51;;;9.34;21.09
62592;BME280;48659;41.622;2.276;2023-03-01T13:24:40;99557.38;;;9.81;21.40
62592;BME280;48659;41.622;2.276;2023-03-01T13:27:18;99558.93;;;11.84;22.67
62592;BME280;48659;41.622;2.276;2023-03-01T13:29:50;99547.04;;;12.07;19.64
62592;BME280;48659;41.622;2.276;2023-03-01T13:32:21;99549.74;;;10.87;19.97
62592;BME280;48659;41.622;2.276;2023-03-01T13:34:51;99546.87;;;11.39;21.59
62592;BME280;48659;41.622;2.276;2023-03-01T13:37:24;99544.91;;;12.33;19.77
62592;BME280;48659;41.622;2.276;2023-03-01T13:39:52;99530.72;;;13.50;18.49
62592;BME280;48659;41.622;2.276;2023-03-01T13:42:40;99534.83;;;10.89;19.73